sensor_id;sensor_type;location;lat;lon;timestamp;P1;durP1;ratioP1;P2;durP2;ratioP2
23578;SDS011;11967;50.852;4.400;2023-04-03T00:01:09;12.10;;;7.53;;
23578;SDS011;11967;50.852;4.400;2023-04-03T00:03:35;8.07;;;6.63;;
23578;SDS011;11967;50.852;4.400;2023-04-03T00:06:01;11.50;;;7.13;;
23578;SDS011;11967;50.852;4.400;2023-04-03T00:08:28;11.43;;;6.80;;
23578;SDS011;11967;50.852;4.400;2023-04-03T00:10:56;11.55;;;6.22;;
23578;SDS011;11967;50.852;4.400;2023-04-03T00:13:21;12.45;;;6.70;;
23578;SDS011;11967;50.852;4.400;2023-04-03T00:15:48;14.80;;;6.78;;
23578;SDS011;11967;50.852;4.400;2023-04-03T00:18:14;12.98;;;6.30;;
23578;SDS011;11967;50.852;4.400;2023-04-03T00:20:41;10.27;;;6.70;;
23578;SDS011;11967;50.852;4.400;2023-04-03T00:23:06;10.13;;;6.50;;
23578;SDS011;11967;50.852;4.400;2023-04-03T00:25:32;11.98;;;6.00;;
23578;SDS011;11967;50.852;4.400;2023-04-03T00:27:58;10.00;;;5.85;;
23578;SDS011;11967;50.852;4.400;2023-04-03T00:30:23;12.82;;;6.45;;
23578;SDS011;11967;50.852;4.400;2023-04-03T00:32:49;11.85;;;6.15;;
23578;SDS011;11967;50.852;4.400;2023-04-03T00:35:16;8.07;;;5.70;;
23578;SDS011;11967;50.852;4.400;2023-04-03T00:37:43;10.50;;;6.10;;
23578;SDS011;11967;50.852;4.400;2023-04-03T00:40:10;11.88;;;6.13;;
23578;SDS011;11967;50.852;4.400;2023-04-03T00:42:37;12.07;;;6.20;;
23578;SDS011;11967;50.852;4.400;2023-04-03T00:47:29;11.73;;;6.47;;
23578;SDS011;11967;50.852;4.400;2023-04-03T00:49:56;15.10;;;7.13;;
23578;SDS011;11967;50.852;4.400;2023-04-03T00:52:23;10.38;;;6.20;;
23578;SDS011;11967;50.852;4.400;2023-04-03T00:54:54;11.60;;;6.22;;
23578;SDS011;11967;50.852;4.400;2023-04-03T00:57:24;10.07;;;6.00;;
23578;SDS011;11967;50.852;4.400;2023-04-03T00:59:52;10.88;;;6.20;;
23578;SDS011;11967;50.852;4.400;2023-04-03T01:02:21;10.27;;;6.43;;
23578;SDS011;11967;50.852;4.400;2023-04-03T01:04:47;14.65;;;6.60;;
23578;SDS011;11967;50.852;4.400;2023-04-03T01:07:20;13.40;;;5.82;;
23578;SDS011;11967;50.852;4.400;2023-04-03T01:09:49;10.82;;;5.57;;
23578;SDS011;11967;50.852;4.400;2023-04-03T01:14:55;9.93;;;5.72;;
23578;SDS011;11967;50.852;4.400;2023-04-03T01:20:16;10.85;;;6.38;;
23578;SDS011;11967;50.852;4.400;2023-04-03T01:25:35;10.65;;;5.72;;
23578;SDS011;11967;50.852;4.400;2023-04-03T01:28:02;10.20;;;5.85;;
23578;SDS011;11967;50.852;4.400;2023-04-03T01:30:33;12.13;;;6.43;;
23578;SDS011;11967;50.852;4.400;2023-04-03T01:33:04;10.88;;;5.75;;
23578;SDS011;11967;50.852;4.400;2023-04-03T01:35:30;12.55;;;6.20;;
23578;SDS011;11967;50.852;4.400;2023-04-03T01:37:55;10.65;;;6.60;;
23578;SDS011;11967;50.852;4.400;2023-04-03T01:40:21;8.20;;;5.30;;
23578;SDS011;11967;50.852;4.400;2023-04-03T01:42:47;11.05;;;5.95;;
23578;SDS011;11967;50.852;4.400;2023-04-03T01:45:12;14.88;;;6.60;;
23578;SDS011;11967;50.852;4.400;2023-04-03T01:47:38;13.00;;;6.65;;
23578;SDS011;11967;50.852;4.400;2023-04-03T01:50:03;12.27;;;6.50;;
23578;SDS011;11967;50.852;4.400;2023-04-03T01:52:29;11.77;;;6.35;;
23578;SDS011;11967;50.852;4.400;2023-04-03T01:54:55;8.82;;;5.95;;
23578;SDS011;11967;50.852;4.400;2023-04-03T01:57:20;8.35;;;5.90;;
23578;SDS011;11967;50.852;4.400;2023-04-03T01:59:46;9.02;;;5.82;;
23578;SDS011;11967;50.852;4.400;2023-04-03T02:02:12;10.07;;;5.90;;
23578;SDS011;11967;50.852;4.400;2023-04-03T02:04:39;11.50;;;6.15;;
23578;SDS011;11967;50.852;4.400;2023-04-03T02:07:05;11.73;;;7.10;;
23578;SDS011;11967;50.852;4.400;2023-04-03T02:09:31;8.88;;;6.47;;
23578;SDS011;11967;50.852;4.400;2023-04-03T02:11:56;9.65;;;5.90;;
23578;SDS011;11967;50.852;4.400;2023-04-03T02:14:22;11.90;;;6.07;;
23578;SDS011;11967;50.852;4.400;2023-04-03T02:16:48;12.88;;;6.25;;
23578;SDS011;11967;50.852;4.400;2023-04-03T02:19:14;9.95;;;5.85;;
23578;SDS011;11967;50.852;4.400;2023-04-03T02:21:40;12.52;;;5.93;;
23578;SDS011;11967;50.852;4.400;2023-04-03T02:24:06;12.68;;;7.07;;
23578;SDS011;11967;50.852;4.400;2023-04-03T02:26:32;9.65;;;5.53;;
23578;SDS011;11967;50.852;4.400;2023-04-03T02:28:57;9.65;;;5.65;;
23578;SDS011;11967;50.852;4.400;2023-04-03T02:31:23;8.70;;;6.22;;
23578;SDS011;11967;50.852;4.400;2023-04-03T02:33:49;10.75;;;6.10;;
23578;SDS011;11967;50.852;4.400;2023-04-03T02:36:15;11.07;;;6.00;;
23578;SDS011;11967;50.852;4.400;2023-04-03T02:38:41;9.77;;;5.90;;
23578;SDS011;11967;50.852;4.400;2023-04-03T02:41:08;7.22;;;5.90;;
23578;SDS011;11967;50.852;4.400;2023-04-03T02:43:35;10.07;;;6.40;;
23578;SDS011;11967;50.852;4.400;2023-04-03T02:46:01;10.35;;;5.85;;
23578;SDS011;11967;50.852;4.400;2023-04-03T02:48:26;9.25;;;6.28;;
23578;SDS011;11967;50.852;4.400;2023-04-03T02:50:52;11.23;;;6.00;;
23578;SDS011;11967;50.852;4.400;2023-04-03T02:53:18;9.07;;;5.80;;
23578;SDS011;11967;50.852;4.400;2023-04-03T02:55:44;10.93;;;6.10;;
23578;SDS011;11967;50.852;4.400;2023-04-03T02:58:10;9.43;;;6.07;;
23578;SDS011;11967;50.852;4.400;2023-04-03T03:00:36;10.88;;;5.72;;
23578;SDS011;11967;50.852;4.400;2023-04-03T03:03:02;10.63;;;6.10;;
23578;SDS011;11967;50.852;4.400;2023-04-03T03:05:29;10.75;;;6.53;;
23578;SDS011;11967;50.852;4.400;2023-04-03T03:07:55;11.77;;;5.93;;
23578;SDS011;11967;50.852;4.400;2023-04-03T03:10:21;11.35;;;6.00;;
23578;SDS011;11967;50.852;4.400;2023-04-03T03:12:47;9.85;;;5.95;;
23578;SDS011;11967;50.852;4.400;2023-04-03T03:15:13;10.05;;;6.20;;
23578;SDS011;11967;50.852;4.400;2023-04-03T03:17:40;8.25;;;5.65;;
23578;SDS011;11967;50.852;4.400;2023-04-03T03:20:06;10.45;;;6.05;;
23578;SDS011;11967;50.852;4.400;2023-04-03T03:22:33;11.40;;;6.10;;
23578;SDS011;11967;50.852;4.400;2023-04-03T03:24:59;10.43;;;6.43;;
23578;SDS011;11967;50.852;4.400;2023-04-03T03:27:25;9.70;;;6.03;;
23578;SDS011;11967;50.852;4.400;2023-04-03T03:29:51;8.63;;;5.95;;
23578;SDS011;11967;50.852;4.400;2023-04-03T03:32:17;11.23;;;6.45;;
23578;SDS011;11967;50.852;4.400;2023-04-03T03:34:42;11.27;;;6.20;;
23578;SDS011;11967;50.852;4.400;2023-04-03T03:37:08;10.63;;;5.95;;
23578;SDS011;11967;50.852;4.400;2023-04-03T03:39:34;10.48;;;6.13;;
23578;SDS011;11967;50.852;4.400;2023-04-03T03:41:59;9.48;;;5.97;;
23578;SDS011;11967;50.852;4.400;2023-04-03T03:44:25;11.00;;;5.78;;
23578;SDS011;11967;50.852;4.400;2023-04-03T03:46:50;10.68;;;6.68;;
23578;SDS011;11967;50.852;4.400;2023-04-03T03:49:16;13.30;;;7.18;;
23578;SDS011;11967;50.852;4.400;2023-04-03T03:51:42;9.13;;;6.13;;
23578;SDS011;11967;50.852;4.400;2023-04-03T03:54:07;10.32;;;6.18;;
23578;SDS011;11967;50.852;4.400;2023-04-03T03:56:33;11.20;;;5.93;;
23578;SDS011;11967;50.852;4.400;2023-04-03T03:58:58;10.30;;;6.13;;
23578;SDS011;11967;50.852;4.400;2023-04-03T04:01:24;10.25;;;6.35;;
23578;SDS011;11967;50.852;4.400;2023-04-03T04:03:50;9.50;;;6.30;;
23578;SDS011;11967;50.852;4.400;2023-04-03T04:06:16;11.90;;;6.45;;
23578;SDS011;11967;50.852;4.400;2023-04-03T04:08:42;10.68;;;6.43;;
23578;SDS011;11967;50.852;4.400;2023-04-03T04:11:08;10.43;;;6.28;;
23578;SDS011;11967;50.852;4.400;2023-04-03T04:13:34;9.20;;;6.35;;
23578;SDS011;11967;50.852;4.400;2023-04-03T04:16:00;10.38;;;6.38;;
23578;SDS011;11967;50.852;4.400;2023-04-03T04:18:25;10.88;;;6.68;;
23578;SDS011;11967;50.852;4.400;2023-04-03T04:20:51;10.45;;;6.53;;
23578;SDS011;11967;50.852;4.400;2023-04-03T04:23:17;10.55;;;7.07;;
23578;SDS011;11967;50.852;4.400;2023-04-03T04:25:50;12.57;;;6.85;;
23578;SDS011;11967;50.852;4.400;2023-04-03T04:28:16;10.88;;;6.88;;
23578;SDS011;11967;50.852;4.400;2023-04-03T04:30:42;13.02;;;6.75;;
23578;SDS011;11967;50.852;4.400;2023-04-03T04:33:08;10.75;;;6.38;;
23578;SDS011;11967;50.852;4.400;2023-04-03T04:35:34;12.82;;;6.93;;
23578;SDS011;11967;50.852;4.400;2023-04-03T04:38:00;9.63;;;6.80;;
23578;SDS011;11967;50.852;4.400;2023-04-03T04:40:26;11.18;;;7.18;;
23578;SDS011;11967;50.852;4.400;2023-04-03T04:42:52;11.20;;;7.00;;
23578;SDS011;11967;50.852;4.400;2023-04-03T04:45:17;10.60;;;7.13;;
23578;SDS011;11967;50.852;4.400;2023-04-03T04:47:43;10.38;;;7.60;;
23578;SDS011;11967;50.852;4.400;2023-04-03T04:50:09;11.32;;;7.15;;
23578;SDS011;11967;50.852;4.400;2023-04-03T04:52:36;9.82;;;6.90;;
23578;SDS011;11967;50.852;4.400;2023-04-03T04:55:02;11.50;;;7.88;;
23578;SDS011;11967;50.852;4.400;2023-04-03T04:57:28;11.70;;;6.90;;
23578;SDS011;11967;50.852;4.400;2023-04-03T04:59:54;10.55;;;7.47;;
23578;SDS011;11967;50.852;4.400;2023-04-03T05:02:20;13.05;;;7.35;;
23578;SDS011;11967;50.852;4.400;2023-04-03T05:04:46;13.25;;;7.97;;
23578;SDS011;11967;50.852;4.400;2023-04-03T05:07:12;11.55;;;8.30;;
23578;SDS011;11967;50.852;4.400;2023-04-03T05:09:38;12.23;;;7.47;;
23578;SDS011;11967;50.852;4.400;2023-04-03T05:12:06;12.90;;;8.10;;
23578;SDS011;11967;50.852;4.400;2023-04-03T05:14:31;13.20;;;8.40;;
23578;SDS011;11967;50.852;4.400;2023-04-03T05:16:57;11.95;;;8.27;;
23578;SDS011;11967;50.852;4.400;2023-04-03T05:19:23;13.43;;;7.35;;
23578;SDS011;11967;50.852;4.400;2023-04-03T05:21:48;18.40;;;8.35;;
23578;SDS011;11967;50.852;4.400;2023-04-03T05:24:14;15.07;;;8.52;;
23578;SDS011;11967;50.852;4.400;2023-04-03T05:26:41;12.27;;;8.02;;
23578;SDS011;11967;50.852;4.400;2023-04-03T05:29:07;16.13;;;8.50;;
23578;SDS011;11967;50.852;4.400;2023-04-03T05:31:32;16.90;;;8.80;;
23578;SDS011;11967;50.852;4.400;2023-04-03T05:34:00;15.02;;;8.48;;
23578;SDS011;11967;50.852;4.400;2023-04-03T05:36:27;15.05;;;9.10;;
23578;SDS011;11967;50.852;4.400;2023-04-03T05:38:52;12.10;;;8.45;;
23578;SDS011;11967;50.852;4.400;2023-04-03T05:41:18;14.30;;;9.07;;
23578;SDS011;11967;50.852;4.400;2023-04-03T05:43:45;17.50;;;8.32;;
23578;SDS011;11967;50.852;4.400;2023-04-03T05:46:12;15.30;;;8.73;;
23578;SDS011;11967;50.852;4.400;2023-04-03T05:48:39;13.73;;;8.85;;
23578;SDS011;11967;50.852;4.400;2023-04-03T05:51:05;13.13;;;8.93;;
23578;SDS011;11967;50.852;4.400;2023-04-03T05:53:33;19.92;;;11.20;;
23578;SDS011;11967;50.852;4.400;2023-04-03T05:56:02;38.55;;;21.55;;
23578;SDS011;11967;50.852;4.400;2023-04-03T05:58:30;18.58;;;10.88;;
23578;SDS011;11967;50.852;4.400;2023-04-03T06:00:55;16.30;;;9.40;;
23578;SDS011;11967;50.852;4.400;2023-04-03T06:03:22;14.05;;;9.70;;
23578;SDS011;11967;50.852;4.400;2023-04-03T06:05:47;15.90;;;8.68;;
23578;SDS011;11967;50.852;4.400;2023-04-03T06:08:14;12.00;;;8.50;;
23578;SDS011;11967;50.852;4.400;2023-04-03T06:10:40;18.80;;;9.30;;
23578;SDS011;11967;50.852;4.400;2023-04-03T06:13:05;17.35;;;9.80;;
23578;SDS011;11967;50.852;4.400;2023-04-03T06:15:32;16.75;;;9.23;;
23578;SDS011;11967;50.852;4.400;2023-04-03T06:17:58;14.73;;;9.60;;
23578;SDS011;11967;50.852;4.400;2023-04-03T06:20:24;15.00;;;9.38;;
23578;SDS011;11967;50.852;4.400;2023-04-03T06:22:50;15.73;;;9.50;;
23578;SDS011;11967;50.852;4.400;2023-04-03T06:25:15;13.43;;;8.45;;
23578;SDS011;11967;50.852;4.400;2023-04-03T06:27:43;17.48;;;8.90;;
23578;SDS011;11967;50.852;4.400;2023-04-03T06:30:10;14.02;;;8.63;;
23578;SDS011;11967;50.852;4.400;2023-04-03T06:32:36;17.52;;;9.68;;
23578;SDS011;11967;50.852;4.400;2023-04-03T06:35:02;17.27;;;9.48;;
23578;SDS011;11967;50.852;4.400;2023-04-03T06:37:29;15.77;;;8.90;;
23578;SDS011;11967;50.852;4.400;2023-04-03T06:39:55;18.67;;;9.07;;
23578;SDS011;11967;50.852;4.400;2023-04-03T06:42:21;20.00;;;9.88;;
23578;SDS011;11967;50.852;4.400;2023-04-03T06:44:47;14.35;;;8.95;;
23578;SDS011;11967;50.852;4.400;2023-04-03T06:47:13;20.00;;;9.75;;
23578;SDS011;11967;50.852;4.400;2023-04-03T06:49:42;14.38;;;9.65;;
23578;SDS011;11967;50.852;4.400;2023-04-03T06:52:08;14.02;;;9.20;;
23578;SDS011;11967;50.852;4.400;2023-04-03T06:54:34;13.85;;;9.57;;
23578;SDS011;11967;50.852;4.400;2023-04-03T06:57:00;15.25;;;9.40;;
23578;SDS011;11967;50.852;4.400;2023-04-03T06:59:27;16.58;;;10.25;;
23578;SDS011;11967;50.852;4.400;2023-04-03T07:01:53;17.38;;;9.50;;
23578;SDS011;11967;50.852;4.400;2023-04-03T07:04:19;14.95;;;9.57;;
23578;SDS011;11967;50.852;4.400;2023-04-03T07:06:45;17.90;;;10.52;;
23578;SDS011;11967;50.852;4.400;2023-04-03T07:09:12;19.42;;;12.82;;
23578;SDS011;11967;50.852;4.400;2023-04-03T07:11:38;42.28;;;24.17;;
23578;SDS011;11967;50.852;4.400;2023-04-03T07:14:04;58.35;;;32.58;;
23578;SDS011;11967;50.852;4.400;2023-04-03T07:16:32;44.60;;;25.75;;
23578;SDS011;11967;50.852;4.400;2023-04-03T07:18:59;21.85;;;13.10;;
23578;SDS011;11967;50.852;4.400;2023-04-03T07:21:26;20.90;;;10.55;;
23578;SDS011;11967;50.852;4.400;2023-04-03T07:23:52;17.10;;;10.32;;
23578;SDS011;11967;50.852;4.400;2023-04-03T07:26:18;17.38;;;11.00;;
23578;SDS011;11967;50.852;4.400;2023-04-03T07:28:45;14.25;;;9.60;;
23578;SDS011;11967;50.852;4.400;2023-04-03T07:31:15;17.83;;;9.63;;
23578;SDS011;11967;50.852;4.400;2023-04-03T07:33:44;12.85;;;9.00;;
23578;SDS011;11967;50.852;4.400;2023-04-03T07:36:11;16.33;;;9.90;;
23578;SDS011;11967;50.852;4.400;2023-04-03T07:38:40;23.33;;;10.73;;
23578;SDS011;11967;50.852;4.400;2023-04-03T07:41:06;13.32;;;9.52;;
23578;SDS011;11967;50.852;4.400;2023-04-03T07:43:31;17.42;;;9.82;;
23578;SDS011;11967;50.852;4.400;2023-04-03T07:45:57;12.75;;;9.43;;
23578;SDS011;11967;50.852;4.400;2023-04-03T07:48:24;15.05;;;9.38;;
23578;SDS011;11967;50.852;4.400;2023-04-03T07:50:50;15.70;;;9.52;;
23578;SDS011;11967;50.852;4.400;2023-04-03T07:53:17;13.98;;;9.02;;
23578;SDS011;11967;50.852;4.400;2023-04-03T07:55:43;11.93;;;8.55;;
23578;SDS011;11967;50.852;4.400;2023-04-03T07:58:13;16.92;;;9.00;;
23578;SDS011;11967;50.852;4.400;2023-04-03T08:00:40;13.77;;;8.48;;
23578;SDS011;11967;50.852;4.400;2023-04-03T08:03:08;15.85;;;9.40;;
23578;SDS011;11967;50.852;4.400;2023-04-03T08:05:36;17.50;;;8.55;;
23578;SDS011;11967;50.852;4.400;2023-04-03T08:08:02;55.95;;;28.33;;
23578;SDS011;11967;50.852;4.400;2023-04-03T08:10:32;24.77;;;13.57;;
23578;SDS011;11967;50.852;4.400;2023-04-03T08:12:59;17.27;;;10.82;;
23578;SDS011;11967;50.852;4.400;2023-04-03T08:15:25;16.75;;;9.45;;
23578;SDS011;11967;50.852;4.400;2023-04-03T08:17:50;15.77;;;8.82;;
23578;SDS011;11967;50.852;4.400;2023-04-03T08:20:16;19.20;;;9.25;;
23578;SDS011;11967;50.852;4.400;2023-04-03T08:22:43;13.50;;;8.75;;
23578;SDS011;11967;50.852;4.400;2023-04-03T08:25:09;13.35;;;8.95;;
23578;SDS011;11967;50.852;4.400;2023-04-03T08:27:34;15.98;;;9.23;;
23578;SDS011;11967;50.852;4.400;2023-04-03T08:30:00;18.60;;;9.23;;
23578;SDS011;11967;50.852;4.400;2023-04-03T08:32:26;13.70;;;8.25;;
23578;SDS011;11967;50.852;4.400;2023-04-03T08:34:52;18.85;;;8.50;;
23578;SDS011;11967;50.852;4.400;2023-04-03T08:37:18;11.73;;;7.53;;
23578;SDS011;11967;50.852;4.400;2023-04-03T08:39:44;14.63;;;8.40;;
23578;SDS011;11967;50.852;4.400;2023-04-03T08:42:15;13.88;;;8.05;;
23578;SDS011;11967;50.852;4.400;2023-04-03T08:44:57;16.50;;;8.85;;
23578;SDS011;11967;50.852;4.400;2023-04-03T08:50:12;14.80;;;7.57;;
23578;SDS011;11967;50.852;4.400;2023-04-03T08:55:19;18.38;;;7.03;;
23578;SDS011;11967;50.852;4.400;2023-04-03T08:58:12;12.65;;;6.93;;
23578;SDS011;11967;50.852;4.400;2023-04-03T09:03:23;12.80;;;6.97;;
23578;SDS011;11967;50.852;4.400;2023-04-03T09:05:53;17.83;;;6.68;;
23578;SDS011;11967;50.852;4.400;2023-04-03T09:11:21;14.25;;;6.95;;
23578;SDS011;11967;50.852;4.400;2023-04-03T09:16:49;17.33;;;6.18;;
23578;SDS011;11967;50.852;4.400;2023-04-03T09:22:01;10.88;;;5.70;;
23578;SDS011;11967;50.852;4.400;2023-04-03T09:24:39;12.88;;;5.60;;
23578;SDS011;11967;50.852;4.400;2023-04-03T09:27:10;10.57;;;5.35;;
23578;SDS011;11967;50.852;4.400;2023-04-03T09:29:38;9.95;;;4.95;;
23578;SDS011;11967;50.852;4.400;2023-04-03T09:32:39;70.88;;;32.25;;
23578;SDS011;11967;50.852;4.400;2023-04-03T09:35:03;17.05;;;8.25;;
23578;SDS011;11967;50.852;4.400;2023-04-03T09:37:44;13.95;;;5.85;;
23578;SDS011;11967;50.852;4.400;2023-04-03T09:40:30;9.32;;;4.60;;
23578;SDS011;11967;50.852;4.400;2023-04-03T09:43:20;10.45;;;3.60;;
23578;SDS011;11967;50.852;4.400;2023-04-03T09:45:53;12.93;;;4.32;;
23578;SDS011;11967;50.852;4.400;2023-04-03T09:48:21;9.05;;;3.85;;
23578;SDS011;11967;50.852;4.400;2023-04-03T09:53:42;12.07;;;4.10;;
23578;SDS011;11967;50.852;4.400;2023-04-03T09:58:41;9.77;;;2.92;;
23578;SDS011;11967;50.852;4.400;2023-04-03T10:01:29;7.07;;;3.17;;
23578;SDS011;11967;50.852;4.400;2023-04-03T10:06:48;10.95;;;3.33;;
23578;SDS011;11967;50.852;4.400;2023-04-03T10:09:20;8.57;;;2.83;;
23578;SDS011;11967;50.852;4.400;2023-04-03T10:11:58;6.32;;;3.00;;
23578;SDS011;11967;50.852;4.400;2023-04-03T10:17:03;11.57;;;3.35;;
23578;SDS011;11967;50.852;4.400;2023-04-03T10:22:32;11.38;;;3.50;;
23578;SDS011;11967;50.852;4.400;2023-04-03T10:25:33;9.90;;;3.63;;
23578;SDS011;11967;50.852;4.400;2023-04-03T10:33:45;7.82;;;3.40;;
23578;SDS011;11967;50.852;4.400;2023-04-03T10:36:48;8.75;;;3.20;;
23578;SDS011;11967;50.852;4.400;2023-04-03T10:39:31;9.82;;;3.28;;
23578;SDS011;11967;50.852;4.400;2023-04-03T10:42:16;55.42;;;24.17;;
23578;SDS011;11967;50.852;4.400;2023-04-03T10:48:22;11.32;;;3.90;;
23578;SDS011;11967;50.852;4.400;2023-04-03T10:51:31;12.38;;;5.00;;
23578;SDS011;11967;50.852;4.400;2023-04-03T10:56:45;9.30;;;3.15;;
23578;SDS011;11967;50.852;4.400;2023-04-03T11:01:55;6.95;;;2.95;;
23578;SDS011;11967;50.852;4.400;2023-04-03T11:04:26;12.23;;;4.88;;
23578;SDS011;11967;50.852;4.400;2023-04-03T11:07:01;24.05;;;11.20;;
23578;SDS011;11967;50.852;4.400;2023-04-03T11:09:34;9.57;;;3.30;;
23578;SDS011;11967;50.852;4.400;2023-04-03T11:14:50;7.05;;;2.78;;
23578;SDS011;11967;50.852;4.400;2023-04-03T11:19:49;5.45;;;2.47;;
23578;SDS011;11967;50.852;4.400;2023-04-03T11:22:23;6.88;;;2.88;;
23578;SDS011;11967;50.852;4.400;2023-04-03T11:27:55;9.20;;;3.50;;
23578;SDS011;11967;50.852;4.400;2023-04-03T11:36:48;7.07;;;2.70;;
23578;SDS011;11967;50.852;4.400;2023-04-03T11:39:25;12.45;;;3.53;;
23578;SDS011;11967;50.852;4.400;2023-04-03T11:42:15;7.88;;;3.20;;
23578;SDS011;11967;50.852;4.400;2023-04-03T11:47:49;8.45;;;3.63;;
23578;SDS011;11967;50.852;4.400;2023-04-03T11:50:39;6.82;;;2.92;;
23578;SDS011;11967;50.852;4.400;2023-04-03T11:58:16;8.45;;;2.50;;
23578;SDS011;11967;50.852;4.400;2023-04-03T12:04:12;6.43;;;2.55;;
23578;SDS011;11967;50.852;4.400;2023-04-03T12:16:23;6.88;;;2.80;;
23578;SDS011;11967;50.852;4.400;2023-04-03T12:24:24;11.38;;;3.70;;
23578;SDS011;11967;50.852;4.400;2023-04-03T12:30:39;7.13;;;3.53;;
23578;SDS011;11967;50.852;4.400;2023-04-03T12:33:14;6.65;;;2.55;;
23578;SDS011;11967;50.852;4.400;2023-04-03T12:36:06;8.35;;;1.90;;
23578;SDS011;11967;50.852;4.400;2023-04-03T12:44:19;14.27;;;3.60;;
23578;SDS011;11967;50.852;4.400;2023-04-03T12:47:02;8.20;;;2.47;;
23578;SDS011;11967;50.852;4.400;2023-04-03T12:49:54;12.35;;;3.00;;
23578;SDS011;11967;50.852;4.400;2023-04-03T12:55:03;14.52;;;2.88;;
23578;SDS011;11967;50.852;4.400;2023-04-03T12:57:40;14.45;;;3.22;;
23578;SDS011;11967;50.852;4.400;2023-04-03T13:00:40;6.00;;;2.45;;
23578;SDS011;11967;50.852;4.400;2023-04-03T13:03:03;7.90;;;2.50;;
23578;SDS011;11967;50.852;4.400;2023-04-03T13:05:31;7.13;;;2.22;;
23578;SDS011;11967;50.852;4.400;2023-04-03T13:08:03;7.40;;;2.25;;
23578;SDS011;11967;50.852;4.400;2023-04-03T13:10:31;6.22;;;2.10;;
23578;SDS011;11967;50.852;4.400;2023-04-03T13:13:09;4.82;;;2.30;;
23578;SDS011;11967;50.852;4.400;2023-04-03T13:15:43;9.15;;;3.40;;
23578;SDS011;11967;50.852;4.400;2023-04-03T13:18:23;4.65;;;2.53;;
23578;SDS011;11967;50.852;4.400;2023-04-03T13:21:03;8.25;;;3.08;;
23578;SDS011;11967;50.852;4.400;2023-04-03T13:23:38;7.82;;;2.33;;
23578;SDS011;11967;50.852;4.400;2023-04-03T13:26:08;5.82;;;2.60;;
23578;SDS011;11967;50.852;4.400;2023-04-03T13:28:34;5.05;;;2.30;;
23578;SDS011;11967;50.852;4.400;2023-04-03T13:33:27;5.40;;;2.67;;
23578;SDS011;11967;50.852;4.400;2023-04-03T13:35:57;9.10;;;2.30;;
23578;SDS011;11967;50.852;4.400;2023-04-03T13:38:30;4.82;;;2.00;;
23578;SDS011;11967;50.852;4.400;2023-04-03T13:40:59;7.00;;;2.92;;
23578;SDS011;11967;50.852;4.400;2023-04-03T13:43:28;8.43;;;2.88;;
23578;SDS011;11967;50.852;4.400;2023-04-03T13:48:50;7.18;;;2.55;;
23578;SDS011;11967;50.852;4.400;2023-04-03T13:54:01;7.07;;;2.58;;
23578;SDS011;11967;50.852;4.400;2023-04-03T13:56:39;5.57;;;2.60;;
23578;SDS011;11967;50.852;4.400;2023-04-03T14:01:45;6.47;;;2.42;;
23578;SDS011;11967;50.852;4.400;2023-04-03T14:04:23;8.80;;;2.40;;
23578;SDS011;11967;50.852;4.400;2023-04-03T14:06:51;9.07;;;2.33;;
23578;SDS011;11967;50.852;4.400;2023-04-03T14:09:18;8.15;;;2.83;;
23578;SDS011;11967;50.852;4.400;2023-04-03T14:11:45;9.23;;;3.40;;
23578;SDS011;11967;50.852;4.400;2023-04-03T14:14:13;7.38;;;2.63;;
23578;SDS011;11967;50.852;4.400;2023-04-03T14:16:45;8.00;;;2.10;;
23578;SDS011;11967;50.852;4.400;2023-04-03T14:19:17;4.78;;;2.35;;
23578;SDS011;11967;50.852;4.400;2023-04-03T14:21:45;5.35;;;2.33;;
23578;SDS011;11967;50.852;4.400;2023-04-03T14:24:10;7.28;;;2.60;;
23578;SDS011;11967;50.852;4.400;2023-04-03T14:26:37;10.13;;;3.00;;
23578;SDS011;11967;50.852;4.400;2023-04-03T14:29:03;7.45;;;2.78;;
23578;SDS011;11967;50.852;4.400;2023-04-03T14:31:29;6.47;;;2.58;;
23578;SDS011;11967;50.852;4.400;2023-04-03T14:33:55;7.43;;;2.60;;
23578;SDS011;11967;50.852;4.400;2023-04-03T14:36:22;6.57;;;2.70;;
23578;SDS011;11967;50.852;4.400;2023-04-03T14:38:50;6.65;;;3.10;;
23578;SDS011;11967;50.852;4.400;2023-04-03T14:41:18;7.13;;;2.80;;
23578;SDS011;11967;50.852;4.400;2023-04-03T14:43:45;7.20;;;2.75;;
23578;SDS011;11967;50.852;4.400;2023-04-03T14:46:16;8.07;;;3.28;;
23578;SDS011;11967;50.852;4.400;2023-04-03T14:48:48;6.18;;;2.80;;
23578;SDS011;11967;50.852;4.400;2023-04-03T14:51:15;5.35;;;2.78;;
23578;SDS011;11967;50.852;4.400;2023-04-03T14:53:42;8.05;;;2.95;;
23578;SDS011;11967;50.852;4.400;2023-04-03T14:56:19;7.65;;;3.00;;
23578;SDS011;11967;50.852;4.400;2023-04-03T14:58:49;11.27;;;3.22;;
23578;SDS011;11967;50.852;4.400;2023-04-03T15:01:19;19.75;;;8.07;;
23578;SDS011;11967;50.852;4.400;2023-04-03T15:03:44;17.85;;;7.60;;
23578;SDS011;11967;50.852;4.400;2023-04-03T15:06:11;15.25;;;3.60;;
23578;SDS011;11967;50.852;4.400;2023-04-03T15:08:37;8.43;;;2.45;;
23578;SDS011;11967;50.852;4.400;2023-04-03T15:11:03;6.10;;;2.30;;
23578;SDS011;11967;50.852;4.400;2023-04-03T15:13:29;6.55;;;2.08;;
23578;SDS011;11967;50.852;4.400;2023-04-03T15:15:54;8.98;;;2.40;;
23578;SDS011;11967;50.852;4.400;2023-04-03T15:18:24;9.18;;;2.75;;
23578;SDS011;11967;50.852;4.400;2023-04-03T15:20:52;9.05;;;2.85;;
23578;SDS011;11967;50.852;4.400;2023-04-03T15:23:20;5.45;;;2.13;;
23578;SDS011;11967;50.852;4.400;2023-04-03T15:25:53;8.75;;;2.30;;
23578;SDS011;11967;50.852;4.400;2023-04-03T15:28:39;7.00;;;2.53;;
23578;SDS011;11967;50.852;4.400;2023-04-03T15:31:06;5.43;;;1.63;;
23578;SDS011;11967;50.852;4.400;2023-04-03T15:33:32;8.30;;;2.08;;
23578;SDS011;11967;50.852;4.400;2023-04-03T15:35:59;5.03;;;2.20;;
23578;SDS011;11967;50.852;4.400;2023-04-03T15:38:24;9.10;;;2.38;;
23578;SDS011;11967;50.852;4.400;2023-04-03T15:40:50;5.35;;;1.80;;
23578;SDS011;11967;50.852;4.400;2023-04-03T15:43:17;3.60;;;1.80;;
23578;SDS011;11967;50.852;4.400;2023-04-03T15:45:44;5.82;;;1.80;;
23578;SDS011;11967;50.852;4.400;2023-04-03T15:48:10;3.20;;;1.80;;
23578;SDS011;11967;50.852;4.400;2023-04-03T15:50:37;14.98;;;6.05;;
23578;SDS011;11967;50.852;4.400;2023-04-03T15:53:03;12.98;;;5.68;;
23578;SDS011;11967;50.852;4.400;2023-04-03T15:55:30;10.38;;;3.58;;
23578;SDS011;11967;50.852;4.400;2023-04-03T15:57:57;10.05;;;3.70;;
23578;SDS011;11967;50.852;4.400;2023-04-03T16:00:24;9.27;;;3.10;;
23578;SDS011;11967;50.852;4.400;2023-04-03T16:02:52;6.50;;;3.10;;
23578;SDS011;11967;50.852;4.400;2023-04-03T16:05:24;4.32;;;2.78;;
23578;SDS011;11967;50.852;4.400;2023-04-03T16:07:52;4.53;;;2.70;;
23578;SDS011;11967;50.852;4.400;2023-04-03T16:10:19;25.35;;;6.88;;
23578;SDS011;11967;50.852;4.400;2023-04-03T16:12:45;12.00;;;3.85;;
23578;SDS011;11967;50.852;4.400;2023-04-03T16:15:11;6.57;;;2.60;;
23578;SDS011;11967;50.852;4.400;2023-04-03T16:17:37;6.60;;;2.92;;
23578;SDS011;11967;50.852;4.400;2023-04-03T16:20:06;5.70;;;2.75;;
23578;SDS011;11967;50.852;4.400;2023-04-03T16:22:33;8.43;;;2.60;;
23578;SDS011;11967;50.852;4.400;2023-04-03T16:25:00;12.27;;;3.03;;
23578;SDS011;11967;50.852;4.400;2023-04-03T16:27:25;7.13;;;2.70;;
23578;SDS011;11967;50.852;4.400;2023-04-03T16:29:53;7.70;;;3.20;;
23578;SDS011;11967;50.852;4.400;2023-04-03T16:32:19;8.20;;;2.78;;
23578;SDS011;11967;50.852;4.400;2023-04-03T16:34:47;6.90;;;2.65;;
23578;SDS011;11967;50.852;4.400;2023-04-03T16:37:13;6.65;;;2.75;;
23578;SDS011;11967;50.852;4.400;2023-04-03T16:39:39;9.93;;;2.83;;
23578;SDS011;11967;50.852;4.400;2023-04-03T16:42:05;10.02;;;2.80;;
23578;SDS011;11967;50.852;4.400;2023-04-03T16:44:30;7.47;;;3.22;;
23578;SDS011;11967;50.852;4.400;2023-04-03T16:46:56;6.63;;;2.72;;